Terminal Aerodrome Forecast
Issued by NWS Dallas/Fort Worth, TX

Home | Current Version | Previous Version | Text Only | Print | Product List | Glossary On
Versions: 1 2 3 4 5 6 7 8 9 10 11 12 13 14 15 16 17 18 19 20 21 22 23 24 25 26 27 28 29 30 31 32 33 34 35 36 37 38 39 40 41
000
FTUS44 KFWD 031453 AAB
TAFDFW
TAF AMD
KDFW 031453Z 0315/0418 18006KT 5SM BR OVC006
      TEMPO 0315/0317 3SM BR OVC003
     FM031700 19010KT 6SM BR OVC007
     FM031900 19013KT P6SM OVC015
     FM040200 16009KT 5SM BR VCSH OVC008
     FM040600 36006KT 3SM -RA OVC006
     FM041300 36016G28KT 5SM BR VCSH OVC008=

USA.gov is the U.S. government's official web portal to all federal, state and local government web resources and services.